sensor_id;sensor_type;location;lat;lon;timestamp;temperature;humidity
2945;DHT22;1482;51.398;7.128;2023-03-07T00:01:40;3.30;99.90
2945;DHT22;1482;51.398;7.128;2023-03-07T00:04:06;3.40;99.90
2945;DHT22;1482;51.398;7.128;2023-03-07T00:06:31;3.40;99.90
2945;DHT22;1482;51.398;7.128;2023-03-07T00:08:59;3.50;99.90
2945;DHT22;1482;51.398;7.128;2023-03-07T00:11:25;3.60;99.90
2945;DHT22;1482;51.398;7.128;2023-03-07T00:13:51;3.70;99.90
2945;DHT22;1482;51.398;7.128;2023-03-07T00:16:19;3.60;99.90
2945;DHT22;1482;51.398;7.128;2023-03-07T00:18:45;3.60;99.90
2945;DHT22;1482;51.398;7.128;2023-03-07T00:21:13;3.70;99.90
2945;DHT22;1482;51.398;7.128;2023-03-07T00:23:41;3.60;99.90
2945;DHT22;1482;51.398;7.128;2023-03-07T00:26:18;3.60;99.90
2945;DHT22;1482;51.398;7.128;2023-03-07T00:28:45;3.70;99.90
2945;DHT22;1482;51.398;7.128;2023-03-07T00:31:11;3.70;99.90
2945;DHT22;1482;51.398;7.128;2023-03-07T00:33:38;3.80;99.90
2945;DHT22;1482;51.398;7.128;2023-03-07T00:36:06;3.80;99.90
2945;DHT22;1482;51.398;7.128;2023-03-07T00:38:33;3.80;99.90
2945;DHT22;1482;51.398;7.128;2023-03-07T00:43:45;3.90;99.90
2945;DHT22;1482;51.398;7.128;2023-03-07T00:46:12;4.00;99.90
2945;DHT22;1482;51.398;7.128;2023-03-07T00:48:39;4.00;69.20
2945;DHT22;1482;51.398;7.128;2023-03-07T00:51:06;4.00;62.80
2945;DHT22;1482;51.398;7.128;2023-03-07T00:53:33;4.00;22.80
2945;DHT22;1482;51.398;7.128;2023-03-07T00:56:16;4.00;2.50
2945;DHT22;1482;51.398;7.128;2023-03-07T00:58:42;3.90;1.00
2945;DHT22;1482;51.398;7.128;2023-03-07T01:01:09;3.90;1.00
2945;DHT22;1482;51.398;7.128;2023-03-07T01:03:35;3.90;1.00
2945;DHT22;1482;51.398;7.128;2023-03-07T01:06:03;3.90;4.40
2945;DHT22;1482;51.398;7.128;2023-03-07T01:08:30;4.00;13.70
2945;DHT22;1482;51.398;7.128;2023-03-07T01:11:01;4.00;10.70
2945;DHT22;1482;51.398;7.128;2023-03-07T01:13:27;4.00;7.50
2945;DHT22;1482;51.398;7.128;2023-03-07T01:15:52;4.10;1.00
2945;DHT22;1482;51.398;7.128;2023-03-07T01:18:18;4.00;1.00
2945;DHT22;1482;51.398;7.128;2023-03-07T01:20:44;3.90;1.00
2945;DHT22;1482;51.398;7.128;2023-03-07T01:23:09;3.80;1.00
2945;DHT22;1482;51.398;7.128;2023-03-07T01:25:39;3.90;60.10
2945;DHT22;1482;51.398;7.128;2023-03-07T01:28:06;4.00;53.30
2945;DHT22;1482;51.398;7.128;2023-03-07T01:30:32;4.00;56.20
2945;DHT22;1482;51.398;7.128;2023-03-07T01:32:59;3.90;26.10
2945;DHT22;1482;51.398;7.128;2023-03-07T01:35:25;3.90;58.00
2945;DHT22;1482;51.398;7.128;2023-03-07T01:37:52;4.00;85.50
2945;DHT22;1482;51.398;7.128;2023-03-07T01:40:20;4.10;53.70
2945;DHT22;1482;51.398;7.128;2023-03-07T01:42:45;4.20;22.70
2945;DHT22;1482;51.398;7.128;2023-03-07T01:47:37;4.10;1.00
2945;DHT22;1482;51.398;7.128;2023-03-07T01:50:06;4.20;1.00
2945;DHT22;1482;51.398;7.128;2023-03-07T01:52:43;4.00;1.00
2945;DHT22;1482;51.398;7.128;2023-03-07T01:55:31;4.10;1.90
2945;DHT22;1482;51.398;7.128;2023-03-07T01:58:05;4.20;2.50
2945;DHT22;1482;51.398;7.128;2023-03-07T02:00:31;4.30;16.30
2945;DHT22;1482;51.398;7.128;2023-03-07T02:05:31;4.20;6.40
2945;DHT22;1482;51.398;7.128;2023-03-07T02:07:59;4.20;1.00
2945;DHT22;1482;51.398;7.128;2023-03-07T02:10:25;4.30;1.00
2945;DHT22;1482;51.398;7.128;2023-03-07T02:12:53;4.30;1.00
2945;DHT22;1482;51.398;7.128;2023-03-07T02:15:18;4.30;1.00
2945;DHT22;1482;51.398;7.128;2023-03-07T02:17:44;4.40;1.00
2945;DHT22;1482;51.398;7.128;2023-03-07T02:22:48;4.40;1.00
2945;DHT22;1482;51.398;7.128;2023-03-07T02:25:23;4.40;1.00
2945;DHT22;1482;51.398;7.128;2023-03-07T02:27:51;4.50;1.00
2945;DHT22;1482;51.398;7.128;2023-03-07T02:30:18;4.40;1.00
2945;DHT22;1482;51.398;7.128;2023-03-07T02:32:44;4.40;1.00
2945;DHT22;1482;51.398;7.128;2023-03-07T02:35:13;4.30;1.00
2945;DHT22;1482;51.398;7.128;2023-03-07T02:37:40;4.20;1.00
2945;DHT22;1482;51.398;7.128;2023-03-07T02:40:09;4.20;1.00
2945;DHT22;1482;51.398;7.128;2023-03-07T02:42:39;4.20;1.00
2945;DHT22;1482;51.398;7.128;2023-03-07T02:45:10;4.30;1.00
2945;DHT22;1482;51.398;7.128;2023-03-07T02:47:36;4.20;1.00
2945;DHT22;1482;51.398;7.128;2023-03-07T02:50:02;4.30;1.00
2945;DHT22;1482;51.398;7.128;2023-03-07T02:52:28;4.30;1.00
2945;DHT22;1482;51.398;7.128;2023-03-07T02:54:54;4.20;1.00
2945;DHT22;1482;51.398;7.128;2023-03-07T02:57:20;4.20;1.00
2945;DHT22;1482;51.398;7.128;2023-03-07T02:59:46;4.20;1.00
2945;DHT22;1482;51.398;7.128;2023-03-07T03:02:11;4.20;1.00
2945;DHT22;1482;51.398;7.128;2023-03-07T03:04:37;4.10;1.00
2945;DHT22;1482;51.398;7.128;2023-03-07T03:07:02;4.20;1.00
2945;DHT22;1482;51.398;7.128;2023-03-07T03:09:28;4.20;1.00
2945;DHT22;1482;51.398;7.128;2023-03-07T03:11:54;4.10;1.00
2945;DHT22;1482;51.398;7.128;2023-03-07T03:14:19;4.10;1.00
2945;DHT22;1482;51.398;7.128;2023-03-07T03:16:45;4.20;1.00
2945;DHT22;1482;51.398;7.128;2023-03-07T03:19:10;4.30;1.00
2945;DHT22;1482;51.398;7.128;2023-03-07T03:21:36;4.20;1.00
2945;DHT22;1482;51.398;7.128;2023-03-07T03:24:08;4.30;1.00
2945;DHT22;1482;51.398;7.128;2023-03-07T03:26:35;4.40;1.00
2945;DHT22;1482;51.398;7.128;2023-03-07T03:29:01;4.40;1.00
2945;DHT22;1482;51.398;7.128;2023-03-07T03:31:27;4.40;1.00
2945;DHT22;1482;51.398;7.128;2023-03-07T03:33:55;4.30;1.00
2945;DHT22;1482;51.398;7.128;2023-03-07T03:36:21;4.40;1.00
2945;DHT22;1482;51.398;7.128;2023-03-07T03:38:52;4.50;99.90
2945;DHT22;1482;51.398;7.128;2023-03-07T03:41:18;4.50;99.90
2945;DHT22;1482;51.398;7.128;2023-03-07T03:43:43;4.50;99.90
2945;DHT22;1482;51.398;7.128;2023-03-07T03:46:09;4.50;99.90
2945;DHT22;1482;51.398;7.128;2023-03-07T03:48:34;4.50;34.20
2945;DHT22;1482;51.398;7.128;2023-03-07T03:51:18;4.50;86.70
2945;DHT22;1482;51.398;7.128;2023-03-07T03:53:44;4.40;35.50
2945;DHT22;1482;51.398;7.128;2023-03-07T03:56:15;4.40;99.90
2945;DHT22;1482;51.398;7.128;2023-03-07T03:58:42;4.50;99.90
2945;DHT22;1482;51.398;7.128;2023-03-07T04:01:10;4.50;99.90
2945;DHT22;1482;51.398;7.128;2023-03-07T04:03:44;4.40;99.90
2945;DHT22;1482;51.398;7.128;2023-03-07T04:06:12;4.30;99.90
2945;DHT22;1482;51.398;7.128;2023-03-07T04:08:38;4.30;1.00
2945;DHT22;1482;51.398;7.128;2023-03-07T04:11:04;4.40;1.00
2945;DHT22;1482;51.398;7.128;2023-03-07T04:13:31;4.40;99.90
2945;DHT22;1482;51.398;7.128;2023-03-07T04:15:57;4.30;99.90
2945;DHT22;1482;51.398;7.128;2023-03-07T04:18:23;4.40;99.90
2945;DHT22;1482;51.398;7.128;2023-03-07T04:20:49;4.40;67.00
2945;DHT22;1482;51.398;7.128;2023-03-07T04:23:20;4.40;1.00
2945;DHT22;1482;51.398;7.128;2023-03-07T04:25:55;4.40;1.00
2945;DHT22;1482;51.398;7.128;2023-03-07T04:28:23;4.40;99.90
2945;DHT22;1482;51.398;7.128;2023-03-07T04:30:49;4.30;99.90
2945;DHT22;1482;51.398;7.128;2023-03-07T04:33:16;4.20;99.90
2945;DHT22;1482;51.398;7.128;2023-03-07T04:35:42;4.30;1.00
2945;DHT22;1482;51.398;7.128;2023-03-07T04:38:08;4.30;1.00
2945;DHT22;1482;51.398;7.128;2023-03-07T04:40:34;4.20;99.90
2945;DHT22;1482;51.398;7.128;2023-03-07T04:43:00;4.30;1.00
2945;DHT22;1482;51.398;7.128;2023-03-07T04:45:25;4.30;1.00
2945;DHT22;1482;51.398;7.128;2023-03-07T04:47:51;4.20;1.00
2945;DHT22;1482;51.398;7.128;2023-03-07T04:50:18;4.20;1.00
2945;DHT22;1482;51.398;7.128;2023-03-07T04:52:44;4.20;1.00
2945;DHT22;1482;51.398;7.128;2023-03-07T04:55:09;4.30;1.00
2945;DHT22;1482;51.398;7.128;2023-03-07T04:57:35;4.10;1.00
2945;DHT22;1482;51.398;7.128;2023-03-07T05:00:02;4.20;1.00
2945;DHT22;1482;51.398;7.128;2023-03-07T05:02:27;4.20;1.00
2945;DHT22;1482;51.398;7.128;2023-03-07T05:04:53;4.10;1.00
2945;DHT22;1482;51.398;7.128;2023-03-07T05:07:18;4.20;1.00
2945;DHT22;1482;51.398;7.128;2023-03-07T05:09:44;4.10;1.00
2945;DHT22;1482;51.398;7.128;2023-03-07T05:12:10;4.00;1.00
2945;DHT22;1482;51.398;7.128;2023-03-07T05:14:35;4.00;1.00
2945;DHT22;1482;51.398;7.128;2023-03-07T05:17:01;3.90;1.00
2945;DHT22;1482;51.398;7.128;2023-03-07T05:19:26;4.00;1.00
2945;DHT22;1482;51.398;7.128;2023-03-07T05:21:52;4.10;1.00
2945;DHT22;1482;51.398;7.128;2023-03-07T05:24:18;4.00;1.00
2945;DHT22;1482;51.398;7.128;2023-03-07T05:26:44;4.00;1.00
2945;DHT22;1482;51.398;7.128;2023-03-07T05:29:10;4.10;1.00
2945;DHT22;1482;51.398;7.128;2023-03-07T05:31:35;4.10;1.00
2945;DHT22;1482;51.398;7.128;2023-03-07T05:34:01;3.90;1.00
2945;DHT22;1482;51.398;7.128;2023-03-07T05:36:26;3.90;1.00
2945;DHT22;1482;51.398;7.128;2023-03-07T05:38:52;4.00;1.00
2945;DHT22;1482;51.398;7.128;2023-03-07T05:41:21;4.00;1.00
2945;DHT22;1482;51.398;7.128;2023-03-07T05:43:46;4.00;1.00
2945;DHT22;1482;51.398;7.128;2023-03-07T05:46:12;4.00;1.00
2945;DHT22;1482;51.398;7.128;2023-03-07T05:48:37;4.10;1.00
2945;DHT22;1482;51.398;7.128;2023-03-07T05:51:03;4.00;1.00
2945;DHT22;1482;51.398;7.128;2023-03-07T05:53:29;4.00;1.00
2945;DHT22;1482;51.398;7.128;2023-03-07T05:55:55;4.00;1.00
2945;DHT22;1482;51.398;7.128;2023-03-07T05:58:20;4.00;1.00
2945;DHT22;1482;51.398;7.128;2023-03-07T06:00:46;4.10;1.00
2945;DHT22;1482;51.398;7.128;2023-03-07T06:03:11;4.10;1.00
2945;DHT22;1482;51.398;7.128;2023-03-07T06:05:37;4.10;1.00
2945;DHT22;1482;51.398;7.128;2023-03-07T06:08:03;4.00;1.00
2945;DHT22;1482;51.398;7.128;2023-03-07T06:10:29;4.00;1.00
2945;DHT22;1482;51.398;7.128;2023-03-07T06:12:54;4.00;1.00
2945;DHT22;1482;51.398;7.128;2023-03-07T06:15:21;4.10;4.40
2945;DHT22;1482;51.398;7.128;2023-03-07T06:17:47;4.20;1.00
2945;DHT22;1482;51.398;7.128;2023-03-07T06:20:12;4.20;1.00
2945;DHT22;1482;51.398;7.128;2023-03-07T06:22:38;4.10;1.00
2945;DHT22;1482;51.398;7.128;2023-03-07T06:25:05;4.20;1.00
2945;DHT22;1482;51.398;7.128;2023-03-07T06:27:32;4.10;1.00
2945;DHT22;1482;51.398;7.128;2023-03-07T06:29:58;4.20;1.00
2945;DHT22;1482;51.398;7.128;2023-03-07T06:32:23;4.20;1.00
2945;DHT22;1482;51.398;7.128;2023-03-07T06:34:49;4.30;1.00
2945;DHT22;1482;51.398;7.128;2023-03-07T06:37:14;4.40;1.00
2945;DHT22;1482;51.398;7.128;2023-03-07T06:39:41;4.40;99.90
2945;DHT22;1482;51.398;7.128;2023-03-07T06:42:07;4.40;99.90
2945;DHT22;1482;51.398;7.128;2023-03-07T06:44:33;4.40;99.90
2945;DHT22;1482;51.398;7.128;2023-03-07T06:46:58;4.50;99.90
2945;DHT22;1482;51.398;7.128;2023-03-07T06:49:24;4.40;99.90
2945;DHT22;1482;51.398;7.128;2023-03-07T06:51:49;4.30;99.90
2945;DHT22;1482;51.398;7.128;2023-03-07T06:54:15;4.40;99.90
2945;DHT22;1482;51.398;7.128;2023-03-07T06:56:41;4.40;99.90
2945;DHT22;1482;51.398;7.128;2023-03-07T06:59:07;4.20;1.00
2945;DHT22;1482;51.398;7.128;2023-03-07T07:01:32;4.20;1.00
2945;DHT22;1482;51.398;7.128;2023-03-07T07:04:00;4.20;1.00
2945;DHT22;1482;51.398;7.128;2023-03-07T07:06:25;4.10;1.00
2945;DHT22;1482;51.398;7.128;2023-03-07T07:08:55;4.20;1.00
2945;DHT22;1482;51.398;7.128;2023-03-07T07:11:21;4.20;1.00
2945;DHT22;1482;51.398;7.128;2023-03-07T07:13:47;4.10;1.00
2945;DHT22;1482;51.398;7.128;2023-03-07T07:16:12;4.10;1.00
2945;DHT22;1482;51.398;7.128;2023-03-07T07:18:38;4.10;1.00
2945;DHT22;1482;51.398;7.128;2023-03-07T07:21:03;4.10;1.00
2945;DHT22;1482;51.398;7.128;2023-03-07T07:23:29;4.20;1.00
2945;DHT22;1482;51.398;7.128;2023-03-07T07:25:55;4.30;1.00
2945;DHT22;1482;51.398;7.128;2023-03-07T07:28:21;4.20;1.00
2945;DHT22;1482;51.398;7.128;2023-03-07T07:30:46;4.20;1.00
2945;DHT22;1482;51.398;7.128;2023-03-07T07:33:12;4.20;1.00
2945;DHT22;1482;51.398;7.128;2023-03-07T07:35:37;4.20;1.00
2945;DHT22;1482;51.398;7.128;2023-03-07T07:38:03;4.30;1.00
2945;DHT22;1482;51.398;7.128;2023-03-07T07:40:29;4.30;1.00
2945;DHT22;1482;51.398;7.128;2023-03-07T07:42:55;4.30;1.00
2945;DHT22;1482;51.398;7.128;2023-03-07T07:45:21;4.40;1.00
2945;DHT22;1482;51.398;7.128;2023-03-07T07:47:48;4.40;1.00
2945;DHT22;1482;51.398;7.128;2023-03-07T07:50:15;4.40;1.00
2945;DHT22;1482;51.398;7.128;2023-03-07T07:52:41;4.30;1.00
2945;DHT22;1482;51.398;7.128;2023-03-07T07:55:07;4.40;1.00
2945;DHT22;1482;51.398;7.128;2023-03-07T07:57:34;4.40;1.00
2945;DHT22;1482;51.398;7.128;2023-03-07T08:00:00;4.40;1.00
2945;DHT22;1482;51.398;7.128;2023-03-07T08:02:26;4.40;99.90
2945;DHT22;1482;51.398;7.128;2023-03-07T08:04:53;4.40;99.90
2945;DHT22;1482;51.398;7.128;2023-03-07T08:07:18;4.40;99.90
2945;DHT22;1482;51.398;7.128;2023-03-07T08:09:44;4.40;99.90
2945;DHT22;1482;51.398;7.128;2023-03-07T08:12:10;4.30;99.90
2945;DHT22;1482;51.398;7.128;2023-03-07T08:14:37;4.40;1.00
2945;DHT22;1482;51.398;7.128;2023-03-07T08:17:02;4.30;1.00
2945;DHT22;1482;51.398;7.128;2023-03-07T08:19:28;4.40;1.00
2945;DHT22;1482;51.398;7.128;2023-03-07T08:21:54;4.50;1.00
2945;DHT22;1482;51.398;7.128;2023-03-07T08:24:19;4.60;1.00
2945;DHT22;1482;51.398;7.128;2023-03-07T08:26:45;4.50;99.90
2945;DHT22;1482;51.398;7.128;2023-03-07T08:29:11;4.40;99.90
2945;DHT22;1482;51.398;7.128;2023-03-07T08:31:37;4.50;99.90
2945;DHT22;1482;51.398;7.128;2023-03-07T08:34:02;4.50;99.90
2945;DHT22;1482;51.398;7.128;2023-03-07T08:36:28;4.50;99.90
2945;DHT22;1482;51.398;7.128;2023-03-07T08:38:53;4.60;99.90
2945;DHT22;1482;51.398;7.128;2023-03-07T08:41:20;4.50;99.90
2945;DHT22;1482;51.398;7.128;2023-03-07T08:43:47;4.50;99.90
2945;DHT22;1482;51.398;7.128;2023-03-07T08:46:12;4.50;99.90
2945;DHT22;1482;51.398;7.128;2023-03-07T08:48:38;4.50;99.90
2945;DHT22;1482;51.398;7.128;2023-03-07T08:51:06;4.40;1.00
2945;DHT22;1482;51.398;7.128;2023-03-07T08:53:32;4.50;99.90
2945;DHT22;1482;51.398;7.128;2023-03-07T08:55:57;4.40;99.90
2945;DHT22;1482;51.398;7.128;2023-03-07T08:58:23;4.50;99.90
2945;DHT22;1482;51.398;7.128;2023-03-07T09:00:49;4.50;58.80
2945;DHT22;1482;51.398;7.128;2023-03-07T09:03:14;4.50;99.90
2945;DHT22;1482;51.398;7.128;2023-03-07T09:05:40;4.50;1.00
2945;DHT22;1482;51.398;7.128;2023-03-07T09:08:06;4.50;89.50
2945;DHT22;1482;51.398;7.128;2023-03-07T09:10:33;4.60;40.50
2945;DHT22;1482;51.398;7.128;2023-03-07T09:12:59;4.60;1.00
2945;DHT22;1482;51.398;7.128;2023-03-07T09:15:24;4.60;58.60
2945;DHT22;1482;51.398;7.128;2023-03-07T09:17:51;4.60;99.90
2945;DHT22;1482;51.398;7.128;2023-03-07T09:20:17;4.70;1.00
2945;DHT22;1482;51.398;7.128;2023-03-07T09:22:43;4.70;99.90
2945;DHT22;1482;51.398;7.128;2023-03-07T09:25:09;4.70;99.90
2945;DHT22;1482;51.398;7.128;2023-03-07T09:27:35;4.80;99.90
2945;DHT22;1482;51.398;7.128;2023-03-07T09:30:00;4.70;99.90
2945;DHT22;1482;51.398;7.128;2023-03-07T09:32:26;4.80;99.90
2945;DHT22;1482;51.398;7.128;2023-03-07T09:34:52;4.80;1.00
2945;DHT22;1482;51.398;7.128;2023-03-07T09:37:18;4.90;99.90
2945;DHT22;1482;51.398;7.128;2023-03-07T09:39:43;4.80;1.00
2945;DHT22;1482;51.398;7.128;2023-03-07T09:50:51;4.70;1.00
2945;DHT22;1482;51.398;7.128;2023-03-07T09:53:35;4.80;99.90
2945;DHT22;1482;51.398;7.128;2023-03-07T09:56:05;4.70;99.90
2945;DHT22;1482;51.398;7.128;2023-03-07T09:58:35;4.80;99.90
2945;DHT22;1482;51.398;7.128;2023-03-07T10:01:04;4.90;99.90
2945;DHT22;1482;51.398;7.128;2023-03-07T10:03:34;4.80;91.50
2945;DHT22;1482;51.398;7.128;2023-03-07T10:06:42;4.80;1.00
2945;DHT22;1482;51.398;7.128;2023-03-07T10:09:16;4.90;29.80
2945;DHT22;1482;51.398;7.128;2023-03-07T10:14:32;4.90;1.00
2945;DHT22;1482;51.398;7.128;2023-03-07T10:17:04;4.90;1.00
2945;DHT22;1482;51.398;7.128;2023-03-07T10:19:48;4.80;1.00
2945;DHT22;1482;51.398;7.128;2023-03-07T10:22:40;4.90;1.00
2945;DHT22;1482;51.398;7.128;2023-03-07T10:25:33;4.90;1.00
2945;DHT22;1482;51.398;7.128;2023-03-07T10:28:30;4.90;1.00
2945;DHT22;1482;51.398;7.128;2023-03-07T10:31:26;4.90;1.00
2945;DHT22;1482;51.398;7.128;2023-03-07T10:33:53;4.90;1.00
2945;DHT22;1482;51.398;7.128;2023-03-07T10:36:33;5.00;1.00
2945;DHT22;1482;51.398;7.128;2023-03-07T10:39:04;5.00;1.00
2945;DHT22;1482;51.398;7.128;2023-03-07T10:41:31;5.00;1.00
2945;DHT22;1482;51.398;7.128;2023-03-07T10:43:57;4.90;1.00
2945;DHT22;1482;51.398;7.128;2023-03-07T10:46:26;4.90;1.00
2945;DHT22;1482;51.398;7.128;2023-03-07T10:49:07;4.80;1.00
2945;DHT22;1482;51.398;7.128;2023-03-07T10:52:06;4.90;1.00
2945;DHT22;1482;51.398;7.128;2023-03-07T10:54:38;4.90;1.00
2945;DHT22;1482;51.398;7.128;2023-03-07T10:57:13;5.00;1.00
2945;DHT22;1482;51.398;7.128;2023-03-07T10:59:44;4.90;99.90
2945;DHT22;1482;51.398;7.128;2023-03-07T11:02:33;4.90;1.00
2945;DHT22;1482;51.398;7.128;2023-03-07T11:05:00;4.90;1.00
2945;DHT22;1482;51.398;7.128;2023-03-07T11:07:29;5.00;1.00
2945;DHT22;1482;51.398;7.128;2023-03-07T11:09:56;5.10;99.90
2945;DHT22;1482;51.398;7.128;2023-03-07T11:12:24;5.10;99.90
2945;DHT22;1482;51.398;7.128;2023-03-07T11:17:44;5.20;99.90
2945;DHT22;1482;51.398;7.128;2023-03-07T11:23:19;5.30;99.90
2945;DHT22;1482;51.398;7.128;2023-03-07T11:25:48;5.30;99.90
2945;DHT22;1482;51.398;7.128;2023-03-07T11:28:27;5.30;99.90
2945;DHT22;1482;51.398;7.128;2023-03-07T11:33:43;5.40;99.90
2945;DHT22;1482;51.398;7.128;2023-03-07T11:36:16;5.30;99.90
2945;DHT22;1482;51.398;7.128;2023-03-07T11:41:41;5.30;99.90
2945;DHT22;1482;51.398;7.128;2023-03-07T11:44:46;5.40;99.90
2945;DHT22;1482;51.398;7.128;2023-03-07T11:50:13;5.30;99.90
2945;DHT22;1482;51.398;7.128;2023-03-07T12:06:31;5.40;99.90
2945;DHT22;1482;51.398;7.128;2023-03-07T12:14:46;5.40;99.90
2945;DHT22;1482;51.398;7.128;2023-03-07T12:23:00;5.40;99.90
2945;DHT22;1482;51.398;7.128;2023-03-07T12:25:38;5.00;99.90
2945;DHT22;1482;51.398;7.128;2023-03-07T12:28:18;4.80;99.90
2945;DHT22;1482;51.398;7.128;2023-03-07T12:33:58;4.60;99.90
2945;DHT22;1482;51.398;7.128;2023-03-07T12:49:54;4.10;1.00
2945;DHT22;1482;51.398;7.128;2023-03-07T12:52:47;4.10;1.00
2945;DHT22;1482;51.398;7.128;2023-03-07T12:55:29;4.20;99.90
2945;DHT22;1482;51.398;7.128;2023-03-07T13:01:00;4.30;1.00
2945;DHT22;1482;51.398;7.128;2023-03-07T13:06:01;4.10;1.00
2945;DHT22;1482;51.398;7.128;2023-03-07T13:08:27;3.80;1.00
2945;DHT22;1482;51.398;7.128;2023-03-07T13:10:54;3.70;1.00
2945;DHT22;1482;51.398;7.128;2023-03-07T13:16:10;3.90;1.00
2945;DHT22;1482;51.398;7.128;2023-03-07T13:18:37;3.80;1.00
2945;DHT22;1482;51.398;7.128;2023-03-07T13:21:09;3.90;1.00
2945;DHT22;1482;51.398;7.128;2023-03-07T13:23:35;3.80;1.00
2945;DHT22;1482;51.398;7.128;2023-03-07T13:26:03;3.70;1.00
2945;DHT22;1482;51.398;7.128;2023-03-07T13:28:41;4.10;1.00
2945;DHT22;1482;51.398;7.128;2023-03-07T13:33:45;4.30;1.00
2945;DHT22;1482;51.398;7.128;2023-03-07T13:36:33;4.40;1.00
2945;DHT22;1482;51.398;7.128;2023-03-07T13:39:00;4.70;1.00
2945;DHT22;1482;51.398;7.128;2023-03-07T13:42:00;4.80;1.00
2945;DHT22;1482;51.398;7.128;2023-03-07T13:44:29;5.00;99.90
2945;DHT22;1482;51.398;7.128;2023-03-07T13:47:01;5.10;99.90
2945;DHT22;1482;51.398;7.128;2023-03-07T13:49:35;5.10;99.90
2945;DHT22;1482;51.398;7.128;2023-03-07T13:52:23;5.00;99.90
2945;DHT22;1482;51.398;7.128;2023-03-07T13:54:55;4.90;99.90
2945;DHT22;1482;51.398;7.128;2023-03-07T13:57:22;4.50;99.90
2945;DHT22;1482;51.398;7.128;2023-03-07T13:59:50;4.40;99.90
2945;DHT22;1482;51.398;7.128;2023-03-07T14:02:17;4.50;1.00
2945;DHT22;1482;51.398;7.128;2023-03-07T14:04:48;4.70;1.00
2945;DHT22;1482;51.398;7.128;2023-03-07T14:07:23;4.90;99.90
2945;DHT22;1482;51.398;7.128;2023-03-07T14:15:48;5.40;99.90
2945;DHT22;1482;51.398;7.128;2023-03-07T14:18:22;5.20;99.90
2945;DHT22;1482;51.398;7.128;2023-03-07T14:28:49;5.40;99.90
2945;DHT22;1482;51.398;7.128;2023-03-07T14:31:24;5.30;99.90
2945;DHT22;1482;51.398;7.128;2023-03-07T14:33:50;5.20;99.90
2945;DHT22;1482;51.398;7.128;2023-03-07T14:36:28;5.10;99.90
2945;DHT22;1482;51.398;7.128;2023-03-07T14:38:57;5.10;99.90
2945;DHT22;1482;51.398;7.128;2023-03-07T14:44:25;5.00;99.90
2945;DHT22;1482;51.398;7.128;2023-03-07T14:47:41;5.00;99.90
2945;DHT22;1482;51.398;7.128;2023-03-07T14:52:30;4.70;99.90
2945;DHT22;1482;51.398;7.128;2023-03-07T14:54:58;4.70;99.90
2945;DHT22;1482;51.398;7.128;2023-03-07T14:57:35;4.50;99.90
2945;DHT22;1482;51.398;7.128;2023-03-07T15:00:13;4.40;99.90
2945;DHT22;1482;51.398;7.128;2023-03-07T15:02:53;4.20;99.90
2945;DHT22;1482;51.398;7.128;2023-03-07T15:07:48;4.10;1.00
2945;DHT22;1482;51.398;7.128;2023-03-07T15:10:18;4.00;1.00
2945;DHT22;1482;51.398;7.128;2023-03-07T15:12:49;3.70;1.00
2945;DHT22;1482;51.398;7.128;2023-03-07T15:15:35;3.60;1.00
2945;DHT22;1482;51.398;7.128;2023-03-07T15:18:18;3.40;1.00
2945;DHT22;1482;51.398;7.128;2023-03-07T15:20:45;3.30;1.00
2945;DHT22;1482;51.398;7.128;2023-03-07T15:23:20;3.50;99.90
2945;DHT22;1482;51.398;7.128;2023-03-07T15:25:47;3.50;87.70
2945;DHT22;1482;51.398;7.128;2023-03-07T15:28:23;3.40;45.80
2945;DHT22;1482;51.398;7.128;2023-03-07T15:30:51;3.20;99.90
2945;DHT22;1482;51.398;7.128;2023-03-07T15:35:44;3.10;99.90
2945;DHT22;1482;51.398;7.128;2023-03-07T15:38:16;3.00;99.90
2945;DHT22;1482;51.398;7.128;2023-03-07T15:40:44;2.90;1.00
2945;DHT22;1482;51.398;7.128;2023-03-07T15:46:02;3.10;99.90
2945;DHT22;1482;51.398;7.128;2023-03-07T15:48:51;3.10;1.00
2945;DHT22;1482;51.398;7.128;2023-03-07T15:51:19;3.00;1.00
2945;DHT22;1482;51.398;7.128;2023-03-07T15:53:57;3.00;99.90
2945;DHT22;1482;51.398;7.128;2023-03-07T15:56:30;2.90;1.00
2945;DHT22;1482;51.398;7.128;2023-03-07T15:59:05;3.00;1.00
2945;DHT22;1482;51.398;7.128;2023-03-07T16:01:31;2.90;40.10
2945;DHT22;1482;51.398;7.128;2023-03-07T16:04:01;3.10;99.90
2945;DHT22;1482;51.398;7.128;2023-03-07T16:06:42;3.10;99.90
2945;DHT22;1482;51.398;7.128;2023-03-07T16:09:11;2.90;1.00
2945;DHT22;1482;51.398;7.128;2023-03-07T16:11:37;2.90;99.90
2945;DHT22;1482;51.398;7.128;2023-03-07T16:14:03;3.00;1.00
2945;DHT22;1482;51.398;7.128;2023-03-07T16:16:29;3.00;99.90
2945;DHT22;1482;51.398;7.128;2023-03-07T16:18:56;2.90;99.90
2945;DHT22;1482;51.398;7.128;2023-03-07T16:21:23;2.90;99.90
2945;DHT22;1482;51.398;7.128;2023-03-07T16:23:49;3.00;1.00
2945;DHT22;1482;51.398;7.128;2023-03-07T16:26:18;3.10;99.90
2945;DHT22;1482;51.398;7.128;2023-03-07T16:28:46;2.90;1.00
2945;DHT22;1482;51.398;7.128;2023-03-07T16:31:13;3.00;18.70
2945;DHT22;1482;51.398;7.128;2023-03-07T16:33:40;3.00;92.50
2945;DHT22;1482;51.398;7.128;2023-03-07T16:36:08;2.80;99.90
2945;DHT22;1482;51.398;7.128;2023-03-07T16:38:34;2.90;99.90
2945;DHT22;1482;51.398;7.128;2023-03-07T16:41:00;2.60;1.00
2945;DHT22;1482;51.398;7.128;2023-03-07T16:45:57;2.70;74.30
2945;DHT22;1482;51.398;7.128;2023-03-07T16:48:23;2.70;99.90
2945;DHT22;1482;51.398;7.128;2023-03-07T16:50:49;2.70;23.90
2945;DHT22;1482;51.398;7.128;2023-03-07T16:53:14;2.60;99.90
2945;DHT22;1482;51.398;7.128;2023-03-07T16:55:40;2.60;99.90
2945;DHT22;1482;51.398;7.128;2023-03-07T16:58:21;2.60;99.90
2945;DHT22;1482;51.398;7.128;2023-03-07T17:00:48;2.80;1.00
2945;DHT22;1482;51.398;7.128;2023-03-07T17:03:14;2.90;1.00
2945;DHT22;1482;51.398;7.128;2023-03-07T17:05:40;3.00;99.90
2945;DHT22;1482;51.398;7.128;2023-03-07T17:08:06;3.10;24.50
2945;DHT22;1482;51.398;7.128;2023-03-07T17:10:33;3.20;1.00
2945;DHT22;1482;51.398;7.128;2023-03-07T17:12:59;3.30;99.90
2945;DHT22;1482;51.398;7.128;2023-03-07T17:15:25;3.20;99.90
2945;DHT22;1482;51.398;7.128;2023-03-07T17:17:55;3.20;99.90
2945;DHT22;1482;51.398;7.128;2023-03-07T17:20:21;3.10;99.90
2945;DHT22;1482;51.398;7.128;2023-03-07T17:22:48;3.00;99.90
2945;DHT22;1482;51.398;7.128;2023-03-07T17:25:14;3.10;99.90
2945;DHT22;1482;51.398;7.128;2023-03-07T17:27:43;3.10;94.00
2945;DHT22;1482;51.398;7.128;2023-03-07T17:30:17;3.10;40.60
2945;DHT22;1482;51.398;7.128;2023-03-07T17:32:43;3.10;34.40
2945;DHT22;1482;51.398;7.128;2023-03-07T17:35:08;3.10;23.20
2945;DHT22;1482;51.398;7.128;2023-03-07T17:37:35;3.10;1.00
2945;DHT22;1482;51.398;7.128;2023-03-07T17:40:01;3.00;1.00
2945;DHT22;1482;51.398;7.128;2023-03-07T17:42:38;3.00;1.00
2945;DHT22;1482;51.398;7.128;2023-03-07T17:45:05;3.00;1.00
2945;DHT22;1482;51.398;7.128;2023-03-07T17:47:31;3.00;1.00
2945;DHT22;1482;51.398;7.128;2023-03-07T17:49:57;3.00;1.00
2945;DHT22;1482;51.398;7.128;2023-03-07T17:52:22;2.90;1.00
2945;DHT22;1482;51.398;7.128;2023-03-07T17:54:48;2.90;1.00
2945;DHT22;1482;51.398;7.128;2023-03-07T17:57:14;2.90;1.00
2945;DHT22;1482;51.398;7.128;2023-03-07T17:59:40;2.90;1.00
2945;DHT22;1482;51.398;7.128;2023-03-07T18:02:08;2.80;1.00
2945;DHT22;1482;51.398;7.128;2023-03-07T18:04:33;2.70;1.00
2945;DHT22;1482;51.398;7.128;2023-03-07T18:06:59;2.60;99.90
2945;DHT22;1482;51.398;7.128;2023-03-07T18:09:25;2.70;99.90
2945;DHT22;1482;51.398;7.128;2023-03-07T18:11:51;2.60;99.90
2945;DHT22;1482;51.398;7.128;2023-03-07T18:14:17;2.60;99.90
2945;DHT22;1482;51.398;7.128;2023-03-07T18:16:42;2.50;99.90
2945;DHT22;1482;51.398;7.128;2023-03-07T18:19:09;2.40;99.90
2945;DHT22;1482;51.398;7.128;2023-03-07T18:21:35;2.30;1.00
2945;DHT22;1482;51.398;7.128;2023-03-07T18:24:01;2.40;1.00
2945;DHT22;1482;51.398;7.128;2023-03-07T18:26:27;2.10;1.00
2945;DHT22;1482;51.398;7.128;2023-03-07T18:28:52;2.20;5.00
2945;DHT22;1482;51.398;7.128;2023-03-07T18:31:20;2.10;99.90
2945;DHT22;1482;51.398;7.128;2023-03-07T18:33:51;2.20;99.90
2945;DHT22;1482;51.398;7.128;2023-03-07T18:36:18;2.10;99.90